createdAt,value
2018-12-11T00:02:55.658Z,83.67
2018-12-11T00:05:59.220Z,84.46
2018-12-11T00:09:02.880Z,84.89
2018-12-11T00:12:06.329Z,85.22
2018-12-11T00:15:09.901Z,84.38
2018-12-11T00:18:13.430Z,85.34
2018-12-11T00:21:16.947Z,85.96
2018-12-11T00:24:20.446Z,84.91
2018-12-11T00:27:24.063Z,85.68
2018-12-11T00:30:27.651Z,85.95
2018-12-11T00:33:31.145Z,85.86
2018-12-11T00:36:34.583Z,86.19
2018-12-11T00:39:38.157Z,86.48
2018-12-11T00:42:41.762Z,86.59
2018-12-11T00:45:45.374Z,86.47
2018-12-11T00:48:48.976Z,86.41
2018-12-11T00:51:52.497Z,86.33
2018-12-11T00:54:56.073Z,85.87
2018-12-11T00:57:59.484Z,85.61
2018-12-11T01:01:02.986Z,85.08
2018-12-11T01:04:06.580Z,85.34
2018-12-11T01:07:10.090Z,85.21
2018-12-11T01:10:13.572Z,84.73
2018-12-11T01:13:17.113Z,84.42
2018-12-11T01:16:20.705Z,83.93
2018-12-11T01:19:24.204Z,84.04
2018-12-11T01:22:27.602Z,83.62
2018-12-11T01:25:31.101Z,83.69
2018-12-11T01:28:34.602Z,83.86
2018-12-11T01:31:38.100Z,83.96
2018-12-11T01:34:41.600Z,83.09
2018-12-11T01:37:45.009Z,83.02
2018-12-11T01:40:48.623Z,82.80
2018-12-11T01:43:52.118Z,82.68
2018-12-11T01:46:55.848Z,82.47
2018-12-11T01:49:59.332Z,82.39
2018-12-11T01:53:02.833Z,82.31
2018-12-11T01:56:06.274Z,81.95
2018-12-11T01:59:09.736Z,82.03
2018-12-11T02:02:13.247Z,81.99
2018-12-11T02:05:16.754Z,81.85
2018-12-11T02:08:20.151Z,82.09
2018-12-11T02:11:23.649Z,81.94
2018-12-11T02:14:27.150Z,82.44
2018-12-11T02:17:30.554Z,82.27
2018-12-11T02:20:34.053Z,82.33
2018-12-11T02:23:37.576Z,82.44
2018-12-11T02:26:41.151Z,82.33
2018-12-11T02:29:44.581Z,82.61
2018-12-11T02:32:48.064Z,82.94
2018-12-11T02:35:51.642Z,83.10
2018-12-11T02:38:55.121Z,82.96
2018-12-11T02:41:58.681Z,83.40
2018-12-11T02:45:02.166Z,83.14
2018-12-11T02:48:05.651Z,83.00
2018-12-11T02:51:09.111Z,83.07
2018-12-11T02:54:12.677Z,83.28
2018-12-11T02:57:16.064Z,82.89
2018-12-11T03:00:19.508Z,83.22
2018-12-11T03:03:23.005Z,83.45
2018-12-11T03:06:26.488Z,83.56
2018-12-11T03:09:30.013Z,83.48
2018-12-11T03:12:33.579Z,83.12
2018-12-11T03:15:37.080Z,83.25
2018-12-11T03:18:40.562Z,83.12
2018-12-11T03:21:44.097Z,83.51
2018-12-11T03:24:47.578Z,83.59
2018-12-11T03:27:51.094Z,83.53
2018-12-11T03:30:54.598Z,83.70
2018-12-11T03:33:58.113Z,83.46
2018-12-11T03:37:01.513Z,83.45
2018-12-11T03:40:05.563Z,83.80
2018-12-11T03:43:09.131Z,84.13
2018-12-11T03:46:12.556Z,84.49
2018-12-11T03:49:16.139Z,84.19
2018-12-11T03:52:21.709Z,84.60
2018-12-11T03:55:23.168Z,84.89
2018-12-11T03:58:26.633Z,84.96
2018-12-11T04:01:30.117Z,85.73
2018-12-11T04:04:33.652Z,85.47
2018-12-11T04:07:37.206Z,85.40
2018-12-11T04:10:40.753Z,85.38
2018-12-11T04:13:44.149Z,86.13
2018-12-11T04:16:47.653Z,85.62
2018-12-11T04:19:51.188Z,85.90
2018-12-11T04:22:54.645Z,86.04
2018-12-11T04:25:58.054Z,85.45
2018-12-11T04:29:01.540Z,86.03
2018-12-11T04:32:05.084Z,86.08
2018-12-11T04:35:08.656Z,86.75
2018-12-11T04:38:12.248Z,86.04
2018-12-11T04:41:15.658Z,86.68
2018-12-11T04:44:20.141Z,86.49
2018-12-11T04:47:23.492Z,87.25
2018-12-11T04:50:26.906Z,87.32
2018-12-11T04:53:30.287Z,87.63
2018-12-11T04:56:33.891Z,87.52
2018-12-11T04:59:37.343Z,87.37
2018-12-11T05:02:40.831Z,87.34
2018-12-11T05:05:44.302Z,87.41
2018-12-11T05:08:47.943Z,87.48
2018-12-11T05:11:51.421Z,87.48
2018-12-11T05:14:54.971Z,87.39
2018-12-11T05:17:58.380Z,87.93
2018-12-11T05:21:01.916Z,87.34
2018-12-11T05:24:05.497Z,87.72
2018-12-11T05:27:09.154Z,87.12
2018-12-11T05:30:12.755Z,87.42
2018-12-11T05:33:16.305Z,87.09
2018-12-11T05:36:19.756Z,87.18
2018-12-11T05:39:23.223Z,87.99
2018-12-11T05:42:26.766Z,87.43
2018-12-11T05:45:31.331Z,87.00
2018-12-11T05:48:34.747Z,86.62
2018-12-11T05:51:38.382Z,87.05
2018-12-11T05:54:41.974Z,86.56
2018-12-11T05:57:45.411Z,86.83
2018-12-11T06:00:48.894Z,86.27
2018-12-11T06:03:53.467Z,86.68
2018-12-11T06:06:57.111Z,86.53
2018-12-11T06:10:00.644Z,86.16
2018-12-11T06:13:04.207Z,86.28
2018-12-11T06:16:07.829Z,86.03
2018-12-11T06:19:11.331Z,85.71
2018-12-11T06:22:28.228Z,85.14
2018-12-11T06:25:31.779Z,84.88
2018-12-11T06:28:36.255Z,84.96
2018-12-11T06:31:38.680Z,84.58
2018-12-11T06:34:43.257Z,84.20
2018-12-11T06:37:47.247Z,84.32
2018-12-11T06:40:51.489Z,84.58
2018-12-11T06:43:57.032Z,84.59
2018-12-11T06:47:00.453Z,84.43
2018-12-11T06:50:04.646Z,84.63
2018-12-11T06:53:08.161Z,85.22
2018-12-11T06:56:11.557Z,84.78
2018-12-11T06:59:14.908Z,85.24
2018-12-11T07:02:18.322Z,85.11
2018-12-11T07:05:21.775Z,85.51
2018-12-11T07:08:25.189Z,85.22
2018-12-11T07:11:28.888Z,85.71
2018-12-11T07:14:32.478Z,85.41
2018-12-11T07:17:35.805Z,85.37
2018-12-11T07:20:39.423Z,85.46
2018-12-11T07:23:42.950Z,85.20
2018-12-11T07:26:46.395Z,85.17
2018-12-11T07:29:49.783Z,85.10
2018-12-11T07:32:53.199Z,84.57
2018-12-11T07:35:56.573Z,85.17
2018-12-11T07:38:59.933Z,85.49
2018-12-11T07:42:04.553Z,85.57
2018-12-11T07:45:08.233Z,85.58
2018-12-11T07:48:11.571Z,84.94
2018-12-11T07:51:15.038Z,85.55
2018-12-11T07:54:18.531Z,85.23
2018-12-11T07:57:22.034Z,84.91
2018-12-11T08:00:25.619Z,84.88
2018-12-11T08:03:29.024Z,85.37
2018-12-11T08:06:32.413Z,85.57
2018-12-11T08:09:35.945Z,85.68
2018-12-11T08:12:39.423Z,85.49
2018-12-11T08:15:42.845Z,85.88
2018-12-11T08:18:46.250Z,85.60
2018-12-11T08:21:49.646Z,86.02
2018-12-11T08:24:52.983Z,86.19
2018-12-11T08:27:56.461Z,87.49
2018-12-11T08:30:59.783Z,86.76
2018-12-11T08:34:03.263Z,85.66
2018-12-11T08:37:06.604Z,85.94
2018-12-11T08:40:09.986Z,86.06
2018-12-11T08:43:13.852Z,85.61
2018-12-11T08:46:17.269Z,85.55
2018-12-11T08:49:20.598Z,85.12
2018-12-11T08:52:24.087Z,84.78
2018-12-11T08:55:27.770Z,85.09
2018-12-11T08:58:31.156Z,85.50
2018-12-11T09:01:34.585Z,85.64
2018-12-11T09:04:38.081Z,85.17
2018-12-11T09:07:41.578Z,85.32
2018-12-11T09:10:44.967Z,85.65
2018-12-11T09:13:48.363Z,85.36
2018-12-11T09:16:51.801Z,84.71
2018-12-11T09:19:56.299Z,84.75
2018-12-11T09:22:59.714Z,84.45
2018-12-11T09:26:03.519Z,84.89
2018-12-11T09:29:06.896Z,84.10
2018-12-11T09:32:10.451Z,84.07
2018-12-11T09:35:13.924Z,84.71
2018-12-11T09:38:17.336Z,84.44
2018-12-11T09:41:20.687Z,84.31
2018-12-11T09:44:24.064Z,84.53
2018-12-11T09:47:27.502Z,83.89
2018-12-11T09:50:30.892Z,83.06
2018-12-11T09:53:34.294Z,83.65
2018-12-11T09:56:37.912Z,82.22
2018-12-11T09:59:41.323Z,82.20
2018-12-11T10:02:44.773Z,81.21
2018-12-11T10:05:48.345Z,80.57
2018-12-11T10:08:51.770Z,79.55
2018-12-11T10:11:55.272Z,78.02
2018-12-11T10:14:58.775Z,78.52
2018-12-11T10:18:02.342Z,78.84
2018-12-11T10:21:05.798Z,79.30
2018-12-11T10:24:09.411Z,79.28
2018-12-11T10:27:13.952Z,79.08
2018-12-11T10:30:17.383Z,78.38
2018-12-11T10:33:20.955Z,77.85
2018-12-11T10:36:24.367Z,77.02
2018-12-11T10:39:27.758Z,76.86
2018-12-11T10:42:31.172Z,76.91
2018-12-11T10:45:34.562Z,75.73
2018-12-11T10:48:37.952Z,75.31
2018-12-11T10:51:41.466Z,74.36
2018-12-11T10:54:44.900Z,75.07
2018-12-11T10:57:48.349Z,75.20
2018-12-11T11:00:57.229Z,75.47
2018-12-11T11:04:00.676Z,76.03
2018-12-11T11:07:04.134Z,76.21
2018-12-11T11:10:07.642Z,76.99
2018-12-11T11:13:11.168Z,77.07
2018-12-11T11:16:15.803Z,77.12
2018-12-11T11:19:19.563Z,77.75
2018-12-11T11:22:23.088Z,77.47
2018-12-11T11:25:27.096Z,77.27
2018-12-11T11:28:30.675Z,76.38
2018-12-11T11:31:34.173Z,75.83
2018-12-11T11:34:40.653Z,76.24
2018-12-11T11:37:46.423Z,76.41
2018-12-11T11:40:49.791Z,76.07
2018-12-11T11:43:54.368Z,74.79
2018-12-11T11:46:57.854Z,73.62
2018-12-11T11:50:01.274Z,72.98
2018-12-11T11:53:04.724Z,73.80
2018-12-11T11:56:08.227Z,72.85
2018-12-11T11:59:11.695Z,72.87
2018-12-11T12:02:15.245Z,72.71
2018-12-11T12:05:18.707Z,72.16
2018-12-11T12:08:22.137Z,71.65
2018-12-11T12:11:25.641Z,69.51
2018-12-11T12:14:29.123Z,70.35
2018-12-11T12:17:32.865Z,71.16
2018-12-11T12:20:36.461Z,71.62
2018-12-11T12:23:39.943Z,72.47
2018-12-11T12:26:43.566Z,72.51
2018-12-11T12:29:47.451Z,73.32
2018-12-11T12:32:50.971Z,74.85
2018-12-11T12:35:54.471Z,74.63
2018-12-11T12:38:57.983Z,75.09
2018-12-11T12:42:01.624Z,75.36
2018-12-11T12:45:05.530Z,75.22
2018-12-11T12:48:11.203Z,76.65
2018-12-11T12:51:14.725Z,76.20
2018-12-11T12:54:21.678Z,76.78
2018-12-11T12:57:25.280Z,76.37
2018-12-11T13:00:29.284Z,76.99
2018-12-11T13:03:32.806Z,76.86
2018-12-11T13:06:37.646Z,76.59
2018-12-11T13:09:41.108Z,77.77
2018-12-11T13:12:44.706Z,79.03
2018-12-11T13:15:48.201Z,80.82
2018-12-11T13:18:52.023Z,81.11
2018-12-11T13:21:55.610Z,81.35
2018-12-11T13:24:59.020Z,81.72
2018-12-11T13:28:02.548Z,81.90
2018-12-11T13:31:06.065Z,82.50
2018-12-11T13:34:09.506Z,83.71
2018-12-11T13:37:13.160Z,82.74
2018-12-11T13:40:16.820Z,82.71
2018-12-11T13:43:21.306Z,82.82
2018-12-11T13:46:24.891Z,83.50
2018-12-11T13:49:28.490Z,83.87
2018-12-11T13:52:31.891Z,83.05
2018-12-11T13:55:35.408Z,82.93
2018-12-11T13:58:39.017Z,83.79
2018-12-11T14:01:42.635Z,85.31
2018-12-11T14:04:46.136Z,84.66
2018-12-11T14:07:49.648Z,85.32
2018-12-11T14:10:53.216Z,84.69
2018-12-11T14:13:56.660Z,85.33
2018-12-11T14:17:00.235Z,84.30
2018-12-11T14:20:04.065Z,84.80
2018-12-11T14:23:07.684Z,84.98
2018-12-11T14:26:11.311Z,85.92
2018-12-11T14:29:14.884Z,86.52
2018-12-11T14:32:18.555Z,87.39
2018-12-11T14:35:22.090Z,87.18
2018-12-11T14:38:25.592Z,86.74
2018-12-11T14:41:29.206Z,86.42
2018-12-11T14:44:32.997Z,86.82
2018-12-11T14:47:36.575Z,86.75
2018-12-11T14:50:40.214Z,86.89
2018-12-11T14:53:43.805Z,86.24
2018-12-11T14:56:47.314Z,87.25
2018-12-11T14:59:50.828Z,88.07
2018-12-11T15:02:54.462Z,89.27
2018-12-11T15:05:59.090Z,91.09
2018-12-11T15:09:07.889Z,92.44
2018-12-11T15:12:11.792Z,93.43
2018-12-11T15:15:15.351Z,93.98
2018-12-11T15:18:19.061Z,92.94
2018-12-11T15:21:22.744Z,92.50
2018-12-11T15:24:27.115Z,91.73
2018-12-11T15:27:31.669Z,92.65
2018-12-11T15:30:35.819Z,93.21
2018-12-11T15:33:39.358Z,91.89
2018-12-11T15:36:42.884Z,92.06
2018-12-11T15:39:46.631Z,92.19
2018-12-11T15:42:50.194Z,93.35
2018-12-11T15:45:53.926Z,92.85
2018-12-11T15:48:57.551Z,92.40
2018-12-11T15:52:01.154Z,92.14
2018-12-11T15:55:05.305Z,93.36
2018-12-11T15:58:09.113Z,91.55
2018-12-11T16:01:12.594Z,92.79
2018-12-11T16:04:16.094Z,92.87
2018-12-11T16:07:19.929Z,92.32
2018-12-11T16:10:23.395Z,91.52
2018-12-11T16:13:26.918Z,92.47
2018-12-11T16:16:30.383Z,93.32
2018-12-11T16:19:33.979Z,93.42
2018-12-11T16:22:37.468Z,92.74
2018-12-11T16:25:41.008Z,92.62
2018-12-11T16:28:44.597Z,91.98
2018-12-11T16:31:48.127Z,91.34
2018-12-11T16:34:51.867Z,91.09
2018-12-11T16:37:55.288Z,91.40
2018-12-11T16:40:58.895Z,92.04
2018-12-11T16:44:03.581Z,90.68
2018-12-11T16:47:07.470Z,91.79
2018-12-11T16:50:11.091Z,95.04
2018-12-11T16:53:14.901Z,93.32
2018-12-11T16:56:18.634Z,93.14
2018-12-11T16:59:22.036Z,93.73
2018-12-11T17:02:25.495Z,93.88
2018-12-11T17:05:31.292Z,94.53
2018-12-11T17:08:34.785Z,94.67
2018-12-11T17:11:38.508Z,95.04
2018-12-11T17:14:42.417Z,93.01
2018-12-11T17:17:47.065Z,94.38
2018-12-11T17:20:50.704Z,94.14
2018-12-11T17:23:54.175Z,94.89
2018-12-11T17:26:57.751Z,94.72
2018-12-11T17:30:01.622Z,94.12
2018-12-11T17:33:05.329Z,95.48
2018-12-11T17:36:10.367Z,96.51
2018-12-11T17:39:15.206Z,96.05
2018-12-11T17:42:19.114Z,95.68
2018-12-11T17:45:22.970Z,95.12
2018-12-11T17:48:27.833Z,94.62
2018-12-11T17:51:31.701Z,94.38
2018-12-11T17:54:35.484Z,95.51
2018-12-11T17:57:39.047Z,93.11
2018-12-11T18:00:42.888Z,94.12
2018-12-11T18:03:46.513Z,93.37
2018-12-11T18:06:50.198Z,94.56
2018-12-11T18:09:53.739Z,93.89
2018-12-11T18:12:59.630Z,94.74
2018-12-11T18:16:03.442Z,94.82
2018-12-11T18:19:08.060Z,95.25
2018-12-11T18:22:12.202Z,95.65
2018-12-11T18:25:15.982Z,95.56
2018-12-11T18:28:19.758Z,95.58
2018-12-11T18:31:23.558Z,96.81
2018-12-11T18:34:27.306Z,95.76
2018-12-11T18:37:33.932Z,94.27
2018-12-11T18:40:37.678Z,94.43
2018-12-11T18:43:41.600Z,94.75
2018-12-11T18:46:45.263Z,95.61
2018-12-11T18:49:48.916Z,94.29
2018-12-11T18:52:52.570Z,92.87
2018-12-11T18:55:56.446Z,93.34
2018-12-11T18:59:00.235Z,93.70
2018-12-11T19:02:03.945Z,91.44
2018-12-11T19:05:07.770Z,91.56
2018-12-11T19:08:11.361Z,92.88
2018-12-11T19:11:15.018Z,94.09
2018-12-11T19:14:18.718Z,96.05
2018-12-11T19:17:22.328Z,96.85
2018-12-11T19:20:26.205Z,94.35
2018-12-11T19:23:41.638Z,94.46
2018-12-11T19:26:45.553Z,94.35
2018-12-11T19:29:48.975Z,94.34
2018-12-11T19:32:52.581Z,95.10
2018-12-11T19:35:56.483Z,94.97
2018-12-11T19:39:00.005Z,94.50
2018-12-11T19:42:04.674Z,95.04
2018-12-11T19:45:08.406Z,94.98
2018-12-11T19:48:12.299Z,95.67
2018-12-11T19:51:16.162Z,94.47
2018-12-11T19:54:19.677Z,94.77
2018-12-11T19:57:23.684Z,94.72
2018-12-11T20:00:27.270Z,95.55
2018-12-11T20:03:31.102Z,95.81
2018-12-11T20:06:34.711Z,95.69
2018-12-11T20:09:42.417Z,94.54
2018-12-11T20:12:46.067Z,94.17
2018-12-11T20:15:50.237Z,93.82
2018-12-11T20:18:53.875Z,93.53
2018-12-11T20:21:57.498Z,94.18
2018-12-11T20:25:01.188Z,94.37
2018-12-11T20:28:05.103Z,94.22
2018-12-11T20:31:08.868Z,93.87
2018-12-11T20:34:12.498Z,94.00
2018-12-11T20:37:16.249Z,93.30
2018-12-11T20:40:19.837Z,94.45
2018-12-11T20:43:23.435Z,94.18
2018-12-11T20:46:27.018Z,94.90
2018-12-11T20:49:31.524Z,94.89
2018-12-11T20:52:35.080Z,93.98
2018-12-11T20:55:38.691Z,93.05
2018-12-11T20:58:42.312Z,94.14
2018-12-11T21:01:45.852Z,94.65
2018-12-11T21:04:49.342Z,94.80
2018-12-11T21:07:53.024Z,94.52
2018-12-11T21:10:56.582Z,96.05
2018-12-11T21:14:00.230Z,94.47
2018-12-11T21:17:04.080Z,94.16
2018-12-11T21:20:08.337Z,95.70
2018-12-11T21:23:12.032Z,95.53
2018-12-11T21:26:15.582Z,94.64
2018-12-11T21:29:19.054Z,94.29
2018-12-11T21:32:22.887Z,93.81
2018-12-11T21:35:26.430Z,94.46
2018-12-11T21:38:31.244Z,94.86
2018-12-11T21:41:34.971Z,95.38
2018-12-11T21:44:38.371Z,95.35
2018-12-11T21:47:41.868Z,95.98
2018-12-11T21:50:46.499Z,94.17
2018-12-11T21:53:50.029Z,94.59
2018-12-11T21:56:53.611Z,95.26
2018-12-11T21:59:57.067Z,94.30
2018-12-11T22:03:01.658Z,95.37
2018-12-11T22:06:05.421Z,95.32
2018-12-11T22:09:08.926Z,94.81
2018-12-11T22:12:12.798Z,94.76
2018-12-11T22:15:17.418Z,95.65
2018-12-11T22:18:20.935Z,95.15
2018-12-11T22:21:24.476Z,95.33
2018-12-11T22:24:28.005Z,94.72
2018-12-11T22:27:31.506Z,95.12
2018-12-11T22:30:35.040Z,94.88
2018-12-11T22:33:38.698Z,94.42
2018-12-11T22:36:42.219Z,94.37
2018-12-11T22:39:45.878Z,94.91
2018-12-11T22:42:49.769Z,95.17
2018-12-11T22:45:53.613Z,95.05
2018-12-11T22:48:58.340Z,94.66
2018-12-11T22:52:02.154Z,94.08
2018-12-11T22:55:05.922Z,95.21
2018-12-11T22:58:09.661Z,94.35
2018-12-11T23:01:14.783Z,93.89
2018-12-11T23:04:18.454Z,94.19
2018-12-11T23:07:22.131Z,94.08
2018-12-11T23:10:25.838Z,94.00
2018-12-11T23:13:29.505Z,94.33
2018-12-11T23:16:33.360Z,93.60
2018-12-11T23:19:38.093Z,94.14
2018-12-11T23:22:43.803Z,92.89
2018-12-11T23:25:50.841Z,92.60
2018-12-11T23:28:54.648Z,93.15
2018-12-11T23:31:58.202Z,92.86
2018-12-11T23:35:01.895Z,93.40
2018-12-11T23:38:05.615Z,93.81
2018-12-11T23:41:09.220Z,94.31
2018-12-11T23:44:12.915Z,93.81
2018-12-11T23:47:16.730Z,92.92
2018-12-11T23:50:20.394Z,93.42
2018-12-11T23:53:23.962Z,93.53
2018-12-11T23:56:27.650Z,93.44
2018-12-11T23:59:31.171Z,93.66
